Yuanling, China
Current Conditions -  °F | °C
As of 11:00 PM on Thursday 23 Oct 2014 (Local Time) from ZGHA Reporting Station
Haze Haze  
Wind Chill: 61°   Ceiling: Unl
Heat Index: 61°   Visibility: 2.5mi
Dew Point: 54°   Wind: 2mph
Humidity: 77%   Direction: NA
Pressure: 30.06"   Gusts: NA
Location:  28.47°N, 110.4°E
Report Text: ZGHA 231500Z VRB01MPS 4000 BR NSC 16/12 Q1018 NOSIG
Loading
Personal Weather Stations






























Interactive Weather Map
Tropical Storm Tracking
New forecast layout! Learn more

10-Day Weather Forecast

Advertisements
Track Severe Weather on mobile